createdAt,value
2023-02-16T00:02:59.349Z,5.50
2023-02-16T00:07:02.191Z,5.50
2023-02-16T00:11:22.584Z,5.50
2023-02-16T00:15:25.392Z,5.50
2023-02-16T00:19:30.224Z,5.40
2023-02-16T00:23:33.036Z,5.50
2023-02-16T00:27:36.102Z,5.50
2023-02-16T00:31:39.065Z,5.40
2023-02-16T00:35:43.260Z,5.40
2023-02-16T00:39:46.101Z,5.40
2023-02-16T00:43:48.912Z,5.50
2023-02-16T00:47:52.411Z,5.50
2023-02-16T00:51:56.857Z,5.50
2023-02-16T00:55:59.649Z,5.40
2023-02-16T01:00:06.350Z,5.50
2023-02-16T01:04:11.629Z,5.50
2023-02-16T01:08:34.677Z,5.50
2023-02-16T01:12:38.591Z,5.50
2023-02-16T01:16:43.240Z,5.50
2023-02-16T01:20:46.351Z,5.60
2023-02-16T01:24:50.483Z,5.60
2023-02-16T01:28:53.306Z,5.60
2023-02-16T01:32:56.495Z,5.70
2023-02-16T01:36:59.301Z,5.70
2023-02-16T01:41:08.896Z,5.70
2023-02-16T01:45:14.221Z,5.70
2023-02-16T01:49:17.914Z,5.70
2023-02-16T01:53:24.031Z,5.70
2023-02-16T01:57:31.972Z,5.60
2023-02-16T02:01:40.440Z,5.60
2023-02-16T02:05:43.831Z,5.50
2023-02-16T02:09:51.549Z,5.50
2023-02-16T02:13:58.999Z,5.40
2023-02-16T02:18:01.959Z,5.40
2023-02-16T02:22:37.901Z,5.30
2023-02-16T02:26:50.004Z,5.20
2023-02-16T02:30:55.170Z,5.20
2023-02-16T02:35:02.880Z,5.10
2023-02-16T02:39:12.732Z,5.10
2023-02-16T02:43:18.716Z,5.10
2023-02-16T02:47:21.553Z,5.00
2023-02-16T02:51:30.033Z,5.00
2023-02-16T02:55:53.985Z,5.00
2023-02-16T03:00:18.864Z,5.00
2023-02-16T03:04:25.343Z,5.00
2023-02-16T03:08:29.924Z,4.90
2023-02-16T03:12:46.961Z,4.90
2023-02-16T03:17:10.930Z,4.90
2023-02-16T03:21:31.942Z,4.90
2023-02-16T03:25:53.730Z,4.90
2023-02-16T03:29:57.950Z,4.90
2023-02-16T03:34:02.601Z,4.90
2023-02-16T03:38:05.825Z,4.90
2023-02-16T03:42:08.682Z,4.90
2023-02-16T03:46:11.712Z,4.90
2023-02-16T03:50:16.099Z,4.90
2023-02-16T03:54:18.871Z,4.90
2023-02-16T03:58:22.836Z,4.90
2023-02-16T04:02:26.488Z,4.90
2023-02-16T04:06:30.702Z,5.00
2023-02-16T04:10:33.544Z,5.00
2023-02-16T04:14:36.338Z,5.00
2023-02-16T04:18:39.149Z,5.00
2023-02-16T04:22:43.500Z,5.00
2023-02-16T04:26:46.583Z,5.00
2023-02-16T04:30:49.547Z,5.00
2023-02-16T04:34:52.405Z,5.00
2023-02-16T04:38:56.582Z,5.00
2023-02-16T04:42:59.394Z,5.00
2023-02-16T04:47:02.300Z,5.00
2023-02-16T04:51:05.854Z,5.00
2023-02-16T04:55:10.955Z,4.90
2023-02-16T04:59:14.491Z,4.90
2023-02-16T05:03:17.290Z,4.90
2023-02-16T05:07:20.148Z,4.90
2023-02-16T05:11:41.991Z,4.90
2023-02-16T05:15:45.256Z,4.90
2023-02-16T05:19:48.916Z,4.80
2023-02-16T05:23:51.739Z,4.80
2023-02-16T05:27:56.014Z,4.80
2023-02-16T05:31:59.094Z,4.80
2023-02-16T05:36:01.936Z,4.90
2023-02-16T05:40:05.008Z,4.90
2023-02-16T05:44:09.697Z,4.90
2023-02-16T05:48:12.486Z,5.00
2023-02-16T05:52:15.295Z,5.00
2023-02-16T05:56:18.132Z,5.10
2023-02-16T06:00:22.550Z,5.10
2023-02-16T06:04:26.451Z,5.10
2023-02-16T06:08:29.319Z,5.20
2023-02-16T06:12:32.444Z,5.20
2023-02-16T06:16:37.054Z,5.20
2023-02-16T06:20:40.164Z,5.30
2023-02-16T06:24:43.039Z,5.30
2023-02-16T06:28:45.941Z,5.30
2023-02-16T06:32:50.106Z,5.30
2023-02-16T06:36:52.981Z,5.30
2023-02-16T06:40:55.820Z,5.40
2023-02-16T06:44:58.594Z,5.40
2023-02-16T06:49:02.823Z,5.40
2023-02-16T06:53:05.697Z,5.40
2023-02-16T06:57:08.567Z,5.40
2023-02-16T07:01:11.483Z,5.40
2023-02-16T07:05:15.670Z,5.50
2023-02-16T07:09:18.468Z,5.50
2023-02-16T07:13:21.346Z,5.60
2023-02-16T07:17:24.194Z,5.70
2023-02-16T07:21:28.414Z,5.80
2023-02-16T07:25:31.498Z,5.90
2023-02-16T07:29:34.306Z,6.00
2023-02-16T07:33:37.375Z,6.00
2023-02-16T07:37:41.533Z,6.10
2023-02-16T07:41:44.348Z,6.20
2023-02-16T07:45:47.148Z,6.20
2023-02-16T07:49:50.048Z,6.30
2023-02-16T07:53:54.435Z,6.40
2023-02-16T07:57:58.027Z,6.50
2023-02-16T08:02:00.935Z,6.60
2023-02-16T08:06:03.939Z,6.70
2023-02-16T08:10:09.238Z,6.80
2023-02-16T08:14:12.083Z,6.90
2023-02-16T08:18:15.289Z,7.00
2023-02-16T08:22:18.793Z,7.10
2023-02-16T08:26:24.081Z,7.10
2023-02-16T08:30:27.273Z,7.20
2023-02-16T08:34:31.239Z,7.20
2023-02-16T08:38:34.440Z,7.20
2023-02-16T08:42:39.059Z,7.30
2023-02-16T08:46:42.911Z,7.30
2023-02-16T08:50:53.292Z,7.40
2023-02-16T08:54:56.230Z,7.40
2023-02-16T08:59:00.365Z,7.40
2023-02-16T09:03:04.344Z,7.50
2023-02-16T09:07:07.305Z,7.50
2023-02-16T09:11:12.390Z,7.60
2023-02-16T09:15:16.836Z,7.60
2023-02-16T09:19:20.628Z,7.70
2023-02-16T09:23:23.949Z,7.80
2023-02-16T09:27:27.565Z,7.80
2023-02-16T09:31:33.119Z,7.90
2023-02-16T09:35:36.029Z,8.00
2023-02-16T09:39:38.824Z,8.00
2023-02-16T09:43:46.619Z,8.10
2023-02-16T09:47:52.107Z,8.20
2023-02-16T09:51:59.919Z,8.30
2023-02-16T09:56:07.507Z,8.30
2023-02-16T10:00:15.092Z,8.50
2023-02-16T10:04:28.952Z,8.70
2023-02-16T10:08:34.208Z,8.90
2023-02-16T10:12:39.227Z,9.20
2023-02-16T10:16:43.339Z,9.40
2023-02-16T10:20:49.928Z,9.40
2023-02-16T10:24:57.796Z,9.50
2023-02-16T10:29:01.408Z,9.40
2023-02-16T10:33:11.122Z,9.40
2023-02-16T10:37:19.159Z,9.40
2023-02-16T10:41:30.234Z,9.40
2023-02-16T10:45:35.903Z,9.40
2023-02-16T10:49:38.725Z,9.50
2023-02-16T10:53:45.002Z,9.60
2023-02-16T10:57:52.332Z,9.60
2023-02-16T11:01:57.502Z,9.70
2023-02-16T11:06:13.168Z,9.70
2023-02-16T11:10:21.714Z,9.80
2023-02-16T11:14:26.347Z,9.80
2023-02-16T11:18:37.903Z,9.80
2023-02-16T11:22:41.583Z,9.80
2023-02-16T11:26:59.780Z,9.90
2023-02-16T11:31:14.579Z,10.10
2023-02-16T11:35:17.853Z,10.40
2023-02-16T11:39:22.960Z,10.80
2023-02-16T11:43:28.732Z,11.00
2023-02-16T11:47:32.567Z,11.10
2023-02-16T11:51:36.473Z,11.20
2023-02-16T11:55:40.513Z,11.20
2023-02-16T11:59:44.657Z,11.30
2023-02-16T12:03:59.854Z,11.30
2023-02-16T12:08:19.072Z,11.30
2023-02-16T12:12:29.631Z,11.20
2023-02-16T12:16:37.621Z,11.20
2023-02-16T12:20:46.446Z,11.20
2023-02-16T12:24:57.651Z,11.30
2023-02-16T12:29:04.288Z,11.50
2023-02-16T12:33:14.716Z,11.50
2023-02-16T12:37:22.563Z,11.50
2023-02-16T12:41:32.012Z,11.40
2023-02-16T12:45:37.519Z,11.40
2023-02-16T12:49:45.948Z,11.40
2023-02-16T12:53:51.998Z,11.60
2023-02-16T12:57:58.039Z,11.80
2023-02-16T13:02:02.508Z,12.00
2023-02-16T13:06:11.222Z,12.10
2023-02-16T13:10:18.718Z,12.10
2023-02-16T13:14:22.761Z,12.10
2023-02-16T13:18:28.490Z,12.10
2023-02-16T13:22:52.749Z,12.10
2023-02-16T13:27:05.542Z,12.00
2023-02-16T13:31:15.523Z,12.00
2023-02-16T13:35:34.752Z,11.90
2023-02-16T13:40:01.649Z,11.80
2023-02-16T13:44:08.981Z,11.80
2023-02-16T13:48:16.554Z,11.70
2023-02-16T13:52:31.041Z,11.70
2023-02-16T13:56:36.284Z,11.60
2023-02-16T14:00:42.344Z,11.50
2023-02-16T14:05:02.599Z,11.40
2023-02-16T14:09:33.498Z,11.30
2023-02-16T14:13:46.164Z,11.20
2023-02-16T14:17:50.461Z,11.20
2023-02-16T14:21:53.511Z,11.10
2023-02-16T14:26:02.286Z,11.10
2023-02-16T14:30:07.254Z,11.10
2023-02-16T14:34:16.054Z,11.10
2023-02-16T14:38:23.074Z,11.10
2023-02-16T14:42:29.531Z,11.00
2023-02-16T14:46:43.113Z,11.10
2023-02-16T14:50:54.272Z,11.00
2023-02-16T14:55:07.996Z,11.00
2023-02-16T14:59:19.301Z,10.90
2023-02-16T15:03:23.560Z,10.90
2023-02-16T15:07:29.185Z,10.80
2023-02-16T15:11:33.799Z,10.70
2023-02-16T15:15:45.895Z,10.70
2023-02-16T15:19:49.062Z,10.70
2023-02-16T15:23:54.634Z,10.70
2023-02-16T15:28:00.478Z,10.70
2023-02-16T15:32:06.961Z,10.70
2023-02-16T15:36:12.224Z,10.70
2023-02-16T15:40:27.804Z,10.60
2023-02-16T15:44:34.342Z,10.60
2023-02-16T15:48:38.310Z,10.60
2023-02-16T15:52:41.186Z,10.50
2023-02-16T15:56:48.305Z,10.60
2023-02-16T16:00:51.764Z,10.50
2023-02-16T16:04:56.873Z,10.50
2023-02-16T16:09:00.247Z,10.50
2023-02-16T16:13:06.468Z,10.50
2023-02-16T16:17:14.046Z,10.40
2023-02-16T16:21:25.172Z,10.40
2023-02-16T16:25:37.874Z,10.50
2023-02-16T16:29:44.150Z,10.40
2023-02-16T16:33:53.564Z,10.40
2023-02-16T16:37:56.364Z,10.40
2023-02-16T16:42:19.409Z,10.40
2023-02-16T16:46:25.988Z,10.40
2023-02-16T16:50:30.339Z,10.40
2023-02-16T16:54:35.620Z,10.40
2023-02-16T16:58:38.535Z,10.40
2023-02-16T17:02:42.695Z,10.30
2023-02-16T17:06:45.473Z,10.30
2023-02-16T17:10:48.266Z,10.30
2023-02-16T17:14:51.202Z,10.30
2023-02-16T17:18:55.418Z,10.30
2023-02-16T17:22:58.778Z,10.30
2023-02-16T17:27:01.542Z,10.30
2023-02-16T17:31:04.574Z,10.20
2023-02-16T17:35:09.413Z,10.20
2023-02-16T17:39:12.181Z,10.20
2023-02-16T17:43:15.950Z,10.20
2023-02-16T17:47:18.816Z,10.20
2023-02-16T17:51:25.464Z,10.20
2023-02-16T17:55:28.527Z,10.10
2023-02-16T17:59:34.259Z,10.10
2023-02-16T18:03:37.120Z,10.10
2023-02-16T18:07:41.319Z,10.10
2023-02-16T18:11:44.138Z,10.10
2023-02-16T18:15:48.095Z,10.10
2023-02-16T18:19:50.947Z,10.10
2023-02-16T18:23:56.215Z,10.00
2023-02-16T18:27:59.104Z,10.10
2023-02-16T18:32:03.608Z,10.10
2023-02-16T18:36:09.600Z,10.10
2023-02-16T18:40:16.718Z,10.10
2023-02-16T18:44:19.570Z,10.10
2023-02-16T18:48:22.907Z,10.10
2023-02-16T18:52:26.190Z,10.10
2023-02-16T18:56:30.567Z,10.10
2023-02-16T19:00:33.797Z,10.10
2023-02-16T19:04:36.643Z,10.10
2023-02-16T19:08:39.573Z,10.10
2023-02-16T19:12:43.808Z,10.10
2023-02-16T19:16:47.155Z,10.10
2023-02-16T19:20:49.981Z,10.10
2023-02-16T19:24:53.921Z,10.10
2023-02-16T19:28:58.152Z,10.20
2023-02-16T19:33:00.970Z,10.20
2023-02-16T19:37:03.881Z,10.20
2023-02-16T19:41:09.832Z,10.20
2023-02-16T19:45:13.987Z,10.20
2023-02-16T19:49:17.214Z,10.20
2023-02-16T19:53:21.337Z,10.20
2023-02-16T19:57:24.488Z,10.20
2023-02-16T20:01:29.167Z,10.20
2023-02-16T20:05:32.033Z,10.20
2023-02-16T20:09:37.228Z,10.20
2023-02-16T20:13:40.090Z,10.20
2023-02-16T20:17:44.270Z,10.20
2023-02-16T20:21:47.214Z,10.20
2023-02-16T20:25:50.025Z,10.20
2023-02-16T20:29:52.802Z,10.20
2023-02-16T20:33:57.406Z,10.20
2023-02-16T20:38:00.441Z,10.20
2023-02-16T20:42:03.241Z,10.20
2023-02-16T20:46:07.269Z,10.20
2023-02-16T20:50:13.211Z,10.20
2023-02-16T20:54:16.036Z,10.20
2023-02-16T20:58:18.886Z,10.20
2023-02-16T21:02:21.772Z,10.20
2023-02-16T21:06:28.382Z,10.10
2023-02-16T21:10:31.242Z,10.10
2023-02-16T21:14:34.041Z,10.10
2023-02-16T21:18:39.997Z,10.00
2023-02-16T21:22:44.602Z,10.00
2023-02-16T21:26:47.394Z,10.00
2023-02-16T21:30:50.193Z,10.00
2023-02-16T21:34:52.986Z,9.90
2023-02-16T21:38:57.132Z,9.90
2023-02-16T21:43:00.093Z,9.90
2023-02-16T21:47:20.295Z,9.90
2023-02-16T21:51:25.222Z,9.90
2023-02-16T21:55:47.011Z,9.90
2023-02-16T21:59:49.847Z,9.90
2023-02-16T22:03:56.297Z,9.80
2023-02-16T22:07:59.447Z,9.90
2023-02-16T22:12:03.866Z,9.80
2023-02-16T22:16:11.219Z,9.80
2023-02-16T22:20:14.304Z,9.80
2023-02-16T22:24:18.161Z,9.80
2023-02-16T22:28:22.408Z,9.80
2023-02-16T22:32:25.242Z,9.80
2023-02-16T22:36:28.325Z,9.80
2023-02-16T22:40:31.152Z,9.90
2023-02-16T22:44:35.971Z,9.90
2023-02-16T22:48:38.940Z,9.80
2023-02-16T22:52:41.756Z,9.80
2023-02-16T22:56:44.596Z,9.80
2023-02-16T23:00:48.962Z,9.80
2023-02-16T23:04:51.814Z,9.80
2023-02-16T23:08:55.550Z,9.80
2023-02-16T23:12:58.398Z,9.80
2023-02-16T23:17:04.671Z,9.80
2023-02-16T23:21:08.406Z,9.80
2023-02-16T23:25:28.703Z,9.80
2023-02-16T23:29:31.602Z,9.80
2023-02-16T23:33:35.758Z,9.80
2023-02-16T23:37:38.615Z,9.80
2023-02-16T23:41:41.811Z,9.90
2023-02-16T23:45:44.616Z,9.80
2023-02-16T23:49:48.783Z,9.80
2023-02-16T23:53:51.663Z,9.80
2023-02-16T23:57:54.479Z,9.80
